Time;durP1;ratioP1;P1;durP2;ratioP2;P2;SDS_P1;SDS_P2;PMS_P1;PMS_P2;Temp;Humidity;BMP_temperature;BMP_pressure;BME280_temperature;BME280_humidity;BME280_pressure;Samples;Min_cycle;Max_cycle;Signal;HPM_P1;HPM_P2
2023/03/19 00:01:52;;;;;;;15.93;13.75;;;11.20;99.90;;;;;;5109216;28;20036;-80
2023/03/19 00:04:18;;;;;;;18.13;15.48;;;;;;;;;;5073696;28;20047;-79
2023/03/19 00:06:44;;;;;;;16.10;14.40;;;10.40;99.90;;;;;;5108721;28;20042;-79
2023/03/19 00:09:10;;;;;;;17.70;14.73;;;10.30;99.90;;;;;;5089981;28;20039;-79
2023/03/19 00:11:36;;;;;;;16.50;13.57;;;10.40;99.90;;;;;;5073907;28;20035;-79
2023/03/19 00:14:03;;;;;;;15.55;13.88;;;10.30;99.90;;;;;;5089677;28;20039;-80
2023/03/19 00:16:28;;;;;;;17.98;15.13;;;10.30;99.90;;;;;;5090709;28;20043;-80
2023/03/19 00:18:54;;;;;;;16.77;14.60;;;12.50;99.90;;;;;;5090549;28;20044;-79
2023/03/19 00:21:20;;;;;;;18.42;15.60;;;12.20;99.90;;;;;;5107798;28;20039;-79
2023/03/19 00:23:46;;;;;;;16.23;14.63;;;11.30;99.90;;;;;;5091007;28;20040;-79
2023/03/19 00:26:12;;;;;;;18.20;14.00;;;10.30;99.90;;;;;;5089626;28;20236;-81
2023/03/19 00:28:38;;;;;;;17.05;14.80;;;11.50;99.90;;;;;;5090207;28;20463;-80
2023/03/19 00:31:15;;;;;;;16.70;15.10;;;10.20;99.90;;;;;;5072650;28;20055;-80
2023/03/19 00:33:41;;;;;;;17.95;15.55;;;10.30;99.90;;;;;;5090460;28;20146;-79
2023/03/19 00:36:08;;;;;;;18.30;14.93;;;11.60;99.90;;;;;;5072588;28;20054;-80
2023/03/19 00:38:34;;;;;;;15.68;14.10;;;10.20;99.90;;;;;;5090572;28;20050;-81
2023/03/19 00:41:01;;;;;;;17.42;14.95;;;11.80;99.90;;;;;;5072786;28;20079;-79
2023/03/19 00:43:27;;;;;;;16.80;15.02;;;10.20;99.90;;;;;;5089927;28;20032;-79
2023/03/19 00:45:53;;;;;;;16.98;14.55;;;12.30;99.90;;;;;;5073839;28;20032;-79
2023/03/19 00:48:20;;;;;;;16.83;14.98;;;10.40;99.90;;;;;;5072932;28;20047;-80
2023/03/19 00:50:49;;;;;;;17.60;15.73;;;10.20;99.90;;;;;;5090110;28;20126;-79
2023/03/19 00:53:15;;;;;;;17.58;15.20;;;10.30;99.90;;;;;;5072652;28;20456;-79
2023/03/19 00:55:41;;;;;;;20.33;16.00;;;10.40;99.90;;;;;;5073954;28;20032;-80
2023/03/19 00:58:09;;;;;;;16.92;14.82;;;10.30;99.90;;;;;;5093538;28;20475;-79
2023/03/19 01:00:35;;;;;;;18.00;15.25;;;10.30;99.90;;;;;;5112438;28;20047;-79
2023/03/19 01:03:01;;;;;;;16.52;14.48;;;10.30;99.90;;;;;;5093505;28;20032;-79
2023/03/19 01:05:27;;;;;;;17.08;14.57;;;10.20;99.90;;;;;;5093831;28;20032;-81
2023/03/19 01:07:54;;;;;;;18.88;15.68;;;11.80;99.90;;;;;;5077156;28;20502;-78
2023/03/19 01:10:21;;;;;;;16.63;14.80;;;10.30;99.90;;;;;;5092973;28;20499;-79
2023/03/19 01:12:47;;;;;;;17.45;15.40;;;10.30;99.90;;;;;;5077245;28;20089;-80
2023/03/19 01:15:13;;;;;;;16.25;14.55;;;10.30;99.90;;;;;;5076346;28;20040;-79
2023/03/19 01:17:39;;;;;;;15.75;14.18;;;12.70;99.90;;;;;;5076982;28;20078;-79
2023/03/19 01:20:11;;;;;;;15.77;13.77;;;12.10;99.90;;;;;;5093200;28;20474;-79
2023/03/19 01:22:39;;;;;;;15.10;13.55;;;10.40;99.90;;;;;;5069719;28;20564;-80
2023/03/19 01:25:05;;;;;;;16.02;13.57;;;10.30;99.90;;;;;;5075691;28;20044;-80
2023/03/19 01:27:31;;;;;;;13.57;12.27;;;10.30;99.90;;;;;;5093789;28;20066;-79
2023/03/19 01:29:57;;;;;;;14.77;13.23;;;10.30;99.90;;;;;;5076452;28;20093;-80
2023/03/19 01:32:22;;;;;;;15.65;12.88;;;10.30;99.90;;;;;;5092815;28;20554;-80
2023/03/19 01:34:48;;;;;;;14.13;12.52;;;12.50;99.90;;;;;;5093675;28;20106;-79
2023/03/19 01:37:14;;;;;;;14.15;12.65;;;8.00;99.90;;;;;;5092434;28;20430;-79
2023/03/19 01:39:40;;;;;;;14.70;12.50;;;12.40;99.90;;;;;;5093297;28;20043;-81
2023/03/19 01:42:06;;;;;;;14.57;13.07;;;12.50;99.90;;;;;;5092832;28;20036;-79
2023/03/19 01:44:34;;;;;;;13.90;12.50;;;10.40;99.90;;;;;;5075734;28;20032;-79
2023/03/19 01:47:04;;;;;;;14.48;13.00;;;10.30;99.90;;;;;;5076280;28;20039;-80
2023/03/19 01:49:30;;;;;;;14.48;12.98;;;10.30;99.90;;;;;;5076135;28;20047;-79
2023/03/19 01:51:59;;;;;;;16.67;14.25;;;13.00;99.90;;;;;;5092386;28;20044;-83
2023/03/19 01:54:27;;;;;;;16.95;13.57;;;10.30;99.90;;;;;;5076400;28;20050;-82
2023/03/19 01:57:05;;;;;;;14.75;12.65;;;10.20;99.90;;;;;;5093078;28;20047;-79
2023/03/19 01:59:40;;;;;;;16.95;12.93;;;10.30;99.90;;;;;;5110521;28;20048;-80
2023/03/19 02:02:13;;;;;;;13.35;11.80;;;10.20;99.90;;;;;;5075654;28;20548;-80
2023/03/19 02:04:42;;;;;;;15.02;11.45;;;10.20;99.90;;;;;;5068782;28;20045;-80
2023/03/19 02:07:10;;;;;;;12.95;11.32;;;7.80;99.90;;;;;;5057613;28;20031;-81
2023/03/19 02:09:36;;;;;;;11.70;10.20;;;10.20;99.90;;;;;;5067761;28;20046;-80
2023/03/19 02:12:02;;;;;;;11.70;10.50;;;13.00;99.90;;;;;;5075750;28;20039;-81
2023/03/19 02:14:28;;;;;;;13.48;10.98;;;;;;;;;;5092096;28;20088;-79
2023/03/19 02:16:54;;;;;;;11.77;10.57;;;10.10;99.90;;;;;;5075911;28;20049;-80
2023/03/19 02:19:30;;;;;;;13.07;9.85;;;11.20;99.90;;;;;;5091540;28;20077;-79
2023/03/19 02:21:57;;;;;;;12.02;9.95;;;10.10;99.90;;;;;;5076040;28;20039;-80
2023/03/19 02:24:55;;;;;;;11.75;10.07;;;13.10;99.90;;;;;;5110925;28;20139;-80
2023/03/19 02:27:21;;;;;;;12.23;10.93;;;10.10;99.90;;;;;;5084130;28;20132;-79
2023/03/19 02:29:47;;;;;;;11.98;10.55;;;10.10;99.90;;;;;;5075219;28;20063;-79
2023/03/19 02:32:13;;;;;;;12.30;10.05;;;10.10;99.90;;;;;;5090944;28;20824;-79
2023/03/19 02:34:41;;;;;;;13.50;10.50;;;10.10;99.90;;;;;;5074369;28;20075;-80
2023/03/19 02:37:21;;;;;;;11.52;10.35;;;10.30;99.90;;;;;;5075173;28;20526;-79
2023/03/19 02:39:52;;;;;;;12.27;9.82;;;10.50;99.90;;;;;;5068382;28;20043;-82
2023/03/19 02:42:21;;;;;;;12.88;10.25;;;10.10;99.90;;;;;;5091352;28;20039;-79
2023/03/19 02:44:47;;;;;;;11.68;9.35;;;12.70;99.90;;;;;;5092359;28;20047;-79
2023/03/19 02:47:13;;;;;;;10.85;9.77;;;10.10;99.90;;;;;;5091327;28;20051;-80
2023/03/19 02:49:39;;;;;;;11.25;9.80;;;12.90;99.90;;;;;;5109595;28;20066;-80
2023/03/19 02:52:04;;;;;;;9.48;8.52;;;13.00;99.90;;;;;;5074851;28;20482;-79
2023/03/19 02:54:30;;;;;;;10.05;8.23;;;10.10;99.90;;;;;;5074416;28;20047;-79
2023/03/19 02:56:56;;;;;;;11.13;8.43;;;11.70;99.90;;;;;;5091560;28;20117;-79
2023/03/19 02:59:21;;;;;;;11.02;7.55;;;12.70;99.90;;;;;;5109710;28;20043;-79
2023/03/19 03:01:47;;;;;;;9.75;8.15;;;10.10;99.90;;;;;;5109268;28;20039;-80
2023/03/19 03:04:15;;;;;;;10.30;7.30;;;10.20;99.90;;;;;;5074056;28;20044;-79
2023/03/19 03:06:41;;;;;;;8.15;7.00;;;10.10;99.90;;;;;;5110307;28;20043;-81
2023/03/19 03:09:07;;;;;;;9.55;6.80;;;11.10;99.90;;;;;;5090658;28;20053;-80
2023/03/19 03:11:33;;;;;;;6.60;5.80;;;10.00;99.90;;;;;;5091417;28;20044;-81
2023/03/19 03:13:59;;;;;;;6.65;5.47;;;10.10;99.90;;;;;;5109742;28;20035;-81
2023/03/19 03:16:25;;;;;;;9.20;6.18;;;12.50;99.90;;;;;;5090682;28;20079;-82
2023/03/19 03:18:50;;;;;;;5.88;5.28;;;11.90;99.90;;;;;;5109596;28;20128;-82
2023/03/19 03:21:18;;;;;;;5.75;5.22;;;11.60;99.90;;;;;;5109259;28;20081;-81
2023/03/19 03:23:44;;;;;;;5.22;4.72;;;10.10;99.90;;;;;;5091283;28;20092;-81
2023/03/19 03:26:11;;;;;;;4.88;4.50;;;10.10;99.90;;;;;;5074204;28;20490;-81
2023/03/19 03:28:40;;;;;;;5.40;4.30;;;11.80;99.90;;;;;;5075256;28;20043;-81
2023/03/19 03:31:06;;;;;;;6.00;5.03;;;12.90;99.90;;;;;;5089867;28;20051;-78
2023/03/19 03:33:32;;;;;;;7.47;5.00;;;10.00;99.90;;;;;;5091683;28;20047;-79
2023/03/19 03:35:58;;;;;;;5.82;4.70;;;7.40;99.90;;;;;;5109493;28;20059;-79
2023/03/19 03:38:23;;;;;;;5.93;4.97;;;10.40;99.90;;;;;;5090578;28;20051;-80
2023/03/19 03:40:52;;;;;;;5.28;4.68;;;10.00;99.90;;;;;;5073973;28;20505;-80
2023/03/19 03:43:20;;;;;;;5.53;4.30;;;10.00;99.90;;;;;;5074155;28;20130;-80
2023/03/19 03:45:46;;;;;;;4.50;4.10;;;11.30;99.90;;;;;;5073580;28;20177;-81
2023/03/19 03:48:14;;;;;;;5.50;3.95;;;;;;;;;;5108560;28;20035;-79
2023/03/19 03:50:40;;;;;;;7.45;3.95;;;10.00;99.90;;;;;;5073361;28;20487;-79
2023/03/19 03:53:07;;;;;;;4.43;4.03;;;;;;;;;;5073718;28;20047;-80
2023/03/19 03:55:33;;;;;;;4.18;3.80;;;10.00;99.90;;;;;;5090913;28;20047;-80
2023/03/19 03:57:59;;;;;;;4.30;3.85;;;7.40;99.90;;;;;;5089977;28;20035;-81
2023/03/19 04:00:26;;;;;;;4.43;3.65;;;11.60;99.90;;;;;;5073450;28;20038;-79
2023/03/19 04:02:52;;;;;;;5.05;3.90;;;;;;;;;;5090821;28;20051;-79
2023/03/19 04:05:18;;;;;;;5.05;3.70;;;10.00;99.90;;;;;;5073204;28;20092;-80
2023/03/19 04:07:44;;;;;;;4.50;4.10;;;12.30;99.90;;;;;;5073812;28;20445;-80
2023/03/19 04:10:11;;;;;;;4.43;4.03;;;11.60;99.90;;;;;;5073179;28;20131;-79
2023/03/19 04:12:38;;;;;;;4.45;4.07;;;10.30;99.90;;;;;;5073146;28;20051;-80
2023/03/19 04:15:05;;;;;;;4.55;4.15;;;10.00;99.90;;;;;;5089922;28;20123;-79
2023/03/19 04:17:31;;;;;;;4.80;3.75;;;10.00;99.90;;;;;;5090801;28;20087;-80
2023/03/19 04:19:56;;;;;;;4.15;3.83;;;12.60;99.90;;;;;;5089439;28;20439;-80
2023/03/19 04:22:22;;;;;;;4.28;3.97;;;10.10;99.90;;;;;;5108664;28;20066;-79
2023/03/19 04:24:48;;;;;;;4.47;4.07;;;10.50;99.90;;;;;;5108905;28;20035;-79
2023/03/19 04:27:13;;;;;;;8.23;4.35;;;10.00;99.90;;;;;;5089299;28;20094;-80
2023/03/19 04:29:39;;;;;;;4.50;3.65;;;12.80;99.90;;;;;;5081742;28;20221;-81
2023/03/19 04:32:06;;;;;;;3.70;3.40;;;10.00;99.90;;;;;;5077013;28;20065;-79
2023/03/19 04:34:31;;;;;;;3.80;3.45;;;10.10;99.90;;;;;;5112439;28;20031;-80
2023/03/19 04:36:57;;;;;;;5.15;4.22;;;10.10;99.90;;;;;;5094625;28;20050;-78
2023/03/19 04:39:24;;;;;;;4.88;4.38;;;10.10;99.90;;;;;;5077257;28;20105;-79
2023/03/19 04:41:50;;;;;;;5.53;4.80;;;7.40;99.90;;;;;;5094262;28;20096;-78
2023/03/19 04:44:16;;;;;;;5.05;4.60;;;10.50;99.90;;;;;;5093655;28;20035;-79
2023/03/19 04:46:44;;;;;;;6.10;4.13;;;10.10;99.90;;;;;;5094534;28;20047;-79
2023/03/19 04:49:10;;;;;;;5.05;4.65;;;10.10;99.90;;;;;;5093239;28;20080;-78
2023/03/19 04:51:36;;;;;;;5.72;5.22;;;10.10;99.90;;;;;;5077305;28;20425;-79
2023/03/19 04:54:02;;;;;;;6.90;5.45;;;10.30;99.90;;;;;;5093640;28;20548;-81
2023/03/19 04:56:28;;;;;;;6.13;5.53;;;10.00;99.90;;;;;;5077465;28;20047;-82
2023/03/19 04:58:54;;;;;;;6.40;5.63;;;13.20;99.90;;;;;;5093920;28;20077;-83
2023/03/19 05:01:19;;;;;;;6.00;5.40;;;10.00;99.90;;;;;;5076335;28;20052;-79
2023/03/19 05:03:45;;;;;;;6.15;5.55;;;11.60;99.90;;;;;;5094404;28;20084;-78
2023/03/19 05:06:11;;;;;;;8.25;6.00;;;11.90;99.90;;;;;;5076949;28;20135;-81
2023/03/19 05:08:38;;;;;;;6.55;5.75;;;13.30;99.90;;;;;;5076401;28;20039;-82
2023/03/19 05:11:04;;;;;;;6.55;5.95;;;10.00;99.90;;;;;;5076457;28;20515;-79
2023/03/19 05:13:30;;;;;;;6.78;6.18;;;9.90;99.90;;;;;;5077424;28;20146;-79
2023/03/19 05:15:56;;;;;;;10.07;6.80;;;9.90;99.90;;;;;;5111315;28;20110;-78
2023/03/19 05:18:22;;;;;;;5.93;5.20;;;11.10;99.90;;;;;;5111857;28;20048;-79
2023/03/19 05:20:48;;;;;;;8.30;7.13;;;11.50;99.90;;;;;;5076746;28;20092;-79
2023/03/19 05:23:13;;;;;;;6.82;5.85;;;7.00;99.90;;;;;;5110973;28;20028;-79
2023/03/19 05:25:39;;;;;;;7.32;6.50;;;11.10;99.90;;;;;;5076936;28;20118;-81
2023/03/19 05:28:06;;;;;;;7.53;6.28;;;11.00;99.90;;;;;;5076674;28;20043;-79
2023/03/19 05:30:33;;;;;;;8.60;7.15;;;12.60;99.90;;;;;;5075531;28;20051;-80
2023/03/19 05:32:59;;;;;;;9.80;7.00;;;9.70;99.90;;;;;;5093653;28;20039;-79
2023/03/19 05:35:26;;;;;;;10.90;6.85;;;9.60;99.90;;;;;;5093174;28;20478;-79
2023/03/19 05:37:52;;;;;;;7.35;6.57;;;11.70;99.90;;;;;;5093129;28;20058;-80
2023/03/19 05:40:18;;;;;;;8.35;6.85;;;9.60;99.90;;;;;;5076311;28;20461;-79
2023/03/19 05:42:44;;;;;;;8.30;6.68;;;9.60;99.90;;;;;;5093533;28;20035;-79
2023/03/19 05:45:10;;;;;;;7.75;6.93;;;11.80;99.90;;;;;;5092160;28;20047;-80
2023/03/19 05:47:36;;;;;;;10.75;6.57;;;9.50;99.90;;;;;;5093273;28;20538;-79
2023/03/19 05:50:02;;;;;;;8.13;7.32;;;9.40;99.90;;;;;;5075674;28;20043;-80
2023/03/19 05:52:28;;;;;;;10.38;7.70;;;9.40;99.90;;;;;;5092612;28;20126;-80
2023/03/19 05:54:53;;;;;;;7.85;6.93;;;9.60;99.90;;;;;;5076065;28;20547;-79
2023/03/19 05:57:19;;;;;;;8.57;7.78;;;10.20;99.90;;;;;;5075402;28;20399;-80
2023/03/19 05:59:45;;;;;;;9.00;8.10;;;12.30;99.90;;;;;;5093019;28;20059;-79
2023/03/19 06:02:11;;;;;;;8.20;7.40;;;9.40;99.90;;;;;;5092794;28;20051;-80
2023/03/19 06:04:37;;;;;;;8.38;7.55;;;10.10;99.90;;;;;;5092486;28;20557;-78
2023/03/19 06:07:03;;;;;;;8.55;7.50;;;11.90;99.90;;;;;;5076079;28;20047;-79
2023/03/19 06:09:29;;;;;;;7.82;7.05;;;9.40;99.90;;;;;;5092987;28;20048;-79
2023/03/19 06:11:54;;;;;;;9.98;7.68;;;9.40;99.90;;;;;;5092172;28;20497;-79
2023/03/19 06:14:20;;;;;;;8.02;7.32;;;11.70;99.90;;;;;;5110733;28;20040;-80
2023/03/19 06:16:46;;;;;;;7.55;6.93;;;9.30;99.90;;;;;;5110692;28;20043;-79
2023/03/19 06:19:11;;;;;;;9.75;7.00;;;9.30;99.90;;;;;;5091094;28;20076;-79
2023/03/19 06:21:37;;;;;;;7.63;6.57;;;9.30;99.90;;;;;;5092698;28;20047;-79
2023/03/19 06:24:03;;;;;;;7.40;6.70;;;10.20;99.90;;;;;;5092127;28;20092;-79
2023/03/19 06:26:28;;;;;;;8.52;7.43;;;9.20;99.90;;;;;;5075164;28;20104;-80
2023/03/19 06:28:54;;;;;;;7.07;6.38;;;9.70;99.90;;;;;;5092225;28;20036;-79
2023/03/19 06:31:20;;;;;;;8.23;7.18;;;9.10;99.90;;;;;;5091864;28;20055;-80
2023/03/19 06:33:47;;;;;;;7.65;6.75;;;11.40;99.90;;;;;;5091829;28;20493;-80
2023/03/19 06:36:13;;;;;;;7.55;6.53;;;11.50;99.90;;;;;;5091669;28;20074;-79
2023/03/19 06:38:39;;;;;;;7.78;6.95;;;10.80;99.90;;;;;;5092501;28;20500;-79
2023/03/19 06:41:05;;;;;;;7.53;6.72;;;8.90;99.90;;;;;;5074148;28;20039;-80
2023/03/19 06:43:31;;;;;;;7.60;6.80;;;9.90;99.90;;;;;;5075555;28;20040;-79
2023/03/19 06:45:57;;;;;;;8.18;6.65;;;10.90;99.90;;;;;;5091902;28;20145;-80
2023/03/19 06:48:22;;;;;;;7.43;6.15;;;9.70;99.90;;;;;;5091047;28;20483;-82
2023/03/19 06:50:48;;;;;;;9.90;6.82;;;9.00;99.90;;;;;;5092437;28;20039;-79
2023/03/19 06:53:14;;;;;;;8.07;7.28;;;9.50;99.90;;;;;;5074555;28;20539;-79
2023/03/19 06:55:40;;;;;;;7.72;5.90;;;9.10;99.90;;;;;;5091144;28;20045;-80
2023/03/19 06:58:06;;;;;;;10.98;6.65;;;9.00;99.90;;;;;;5074595;28;20399;-79
2023/03/19 07:00:32;;;;;;;8.60;6.78;;;9.00;99.90;;;;;;5109823;28;20091;-79
2023/03/19 07:02:58;;;;;;;7.32;6.53;;;9.10;99.90;;;;;;5091873;28;20114;-79
2023/03/19 07:05:24;;;;;;;9.10;8.20;;;11.70;99.90;;;;;;5091524;28;20070;-80
2023/03/19 07:07:50;;;;;;;9.27;7.10;;;9.00;99.90;;;;;;5109426;28;20027;-80
2023/03/19 07:10:20;;;;;;;8.30;6.97;;;8.40;99.90;;;;;;5109246;28;20088;-80
2023/03/19 07:12:45;;;;;;;10.40;7.45;;;10.30;99.90;;;;;;5083442;28;20123;-79
2023/03/19 07:15:12;;;;;;;11.38;7.30;;;12.00;99.90;;;;;;5090626;28;20320;-81
2023/03/19 07:17:37;;;;;;;7.95;7.15;;;12.20;99.90;;;;;;5091566;28;20040;-80
2023/03/19 07:20:04;;;;;;;9.43;7.47;;;9.80;99.90;;;;;;5090655;28;20049;-79
2023/03/19 07:22:30;;;;;;;10.45;7.80;;;;;;;;;;5090838;28;20086;-80
2023/03/19 07:24:56;;;;;;;9.02;8.13;;;9.20;99.90;;;;;;5091056;28;20112;-81
2023/03/19 07:27:21;;;;;;;8.02;7.20;;;9.30;99.90;;;;;;5091217;28;20047;-80
2023/03/19 07:29:47;;;;;;;7.90;7.07;;;9.30;99.90;;;;;;5108467;28;20058;-80
2023/03/19 07:32:13;;;;;;;9.82;7.40;;;11.10;99.90;;;;;;5074115;28;20051;-80
2023/03/19 07:34:39;;;;;;;10.32;7.97;;;11.20;99.90;;;;;;5071715;28;20445;-80
2023/03/19 07:37:05;;;;;;;7.95;7.18;;;9.40;99.90;;;;;;5090647;28;20047;-81
2023/03/19 07:39:31;;;;;;;8.90;8.10;;;11.20;99.90;;;;;;5091099;28;20036;-81
2023/03/19 07:41:56;;;;;;;9.50;8.35;;;9.30;99.90;;;;;;5103820;28;20041;-81
2023/03/19 07:44:22;;;;;;;11.13;9.27;;;12.30;99.90;;;;;;5073603;28;20086;-81
2023/03/19 07:46:48;;;;;;;9.80;8.80;;;9.50;99.90;;;;;;5091172;28;20108;-81
2023/03/19 07:49:14;;;;;;;10.48;9.13;;;11.50;99.90;;;;;;5072558;28;20039;-80
2023/03/19 07:51:40;;;;;;;10.07;9.07;;;9.60;99.90;;;;;;5073393;28;20040;-80
2023/03/19 07:54:06;;;;;;;12.40;9.20;;;9.00;99.90;;;;;;5090172;28;20040;-79
2023/03/19 07:56:31;;;;;;;12.75;10.48;;;9.80;99.90;;;;;;5090406;28;20040;-80
2023/03/19 07:58:58;;;;;;;14.27;11.25;;;9.70;99.90;;;;;;5108549;28;20114;-79
2023/03/19 08:01:25;;;;;;;12.20;10.68;;;;;;;;;;5090989;28;20194;-79
2023/03/19 08:03:51;;;;;;;18.08;12.13;;;9.70;99.90;;;;;;5090328;28;20086;-80
2023/03/19 08:06:17;;;;;;;16.30;12.88;;;9.90;99.90;;;;;;5089374;28;20082;-79
2023/03/19 08:08:42;;;;;;;13.75;12.13;;;10.50;99.90;;;;;;5090664;28;20035;-79
2023/03/19 08:11:08;;;;;;;16.30;13.98;;;12.60;99.90;;;;;;5072936;28;20066;-79
2023/03/19 08:13:34;;;;;;;16.05;14.45;;;10.00;99.90;;;;;;5090772;28;20035;-80
2023/03/19 08:15:59;;;;;;;17.25;15.45;;;10.80;99.90;;;;;;5073694;28;20502;-80
2023/03/19 08:18:26;;;;;;;19.50;15.57;;;11.30;99.90;;;;;;5089417;28;20035;-80
2023/03/19 08:20:51;;;;;;;17.08;15.25;;;10.10;99.90;;;;;;5090456;28;20044;-80
2023/03/19 08:23:17;;;;;;;19.13;16.30;;;10.20;99.90;;;;;;5089178;28;20036;-79
2023/03/19 08:25:43;;;;;;;17.88;16.05;;;11.60;99.90;;;;;;5090343;28;20039;-80
2023/03/19 08:28:09;;;;;;;17.92;15.98;;;10.10;99.90;;;;;;5089872;28;20149;-79
2023/03/19 08:30:38;;;;;;;17.77;14.77;;;10.90;99.90;;;;;;5072291;28;20155;-80
2023/03/19 08:33:04;;;;;;;19.08;16.17;;;11.30;99.90;;;;;;5090205;28;20101;-79
2023/03/19 08:35:30;;;;;;;17.08;14.82;;;12.10;99.90;;;;;;5073425;28;20391;-79
2023/03/19 08:37:56;;;;;;;15.93;14.23;;;10.60;99.90;;;;;;5089616;28;20036;-82
2023/03/19 08:40:22;;;;;;;16.83;14.75;;;12.50;99.90;;;;;;5089579;28;20513;-81
2023/03/19 08:42:48;;;;;;;13.45;11.43;;;12.10;99.90;;;;;;5065690;28;20039;-79
2023/03/19 08:45:15;;;;;;;17.15;15.02;;;10.30;99.90;;;;;;5089246;28;20530;-79
2023/03/19 08:47:41;;;;;;;17.65;14.95;;;10.20;99.90;;;;;;5073565;28;20042;-79
2023/03/19 08:50:07;;;;;;;17.95;14.52;;;11.80;99.90;;;;;;5089362;28;20039;-80
2023/03/19 08:52:33;;;;;;;16.42;14.05;;;10.20;99.90;;;;;;5072634;28;20498;-80
2023/03/19 08:54:59;;;;;;;14.52;13.13;;;10.20;99.90;;;;;;5089621;28;20032;-82
2023/03/19 08:57:25;;;;;;;15.50;13.15;;;10.90;99.90;;;;;;5073139;28;20046;-82
2023/03/19 08:59:54;;;;;;;14.98;12.35;;;10.20;99.90;;;;;;5071242;28;20031;-80
2023/03/19 09:02:20;;;;;;;14.43;12.32;;;10.30;99.90;;;;;;5102393;28;20069;-81
2023/03/19 09:04:45;;;;;;;14.52;13.02;;;10.50;99.90;;;;;;5075994;28;20035;-79
2023/03/19 09:07:12;;;;;;;13.55;12.15;;;10.40;99.90;;;;;;5072074;28;20531;-79
2023/03/19 09:09:39;;;;;;;15.88;13.43;;;11.20;99.90;;;;;;5106632;28;20044;-80
2023/03/19 09:12:06;;;;;;;13.75;12.35;;;10.40;99.90;;;;;;5089668;28;20039;-79
2023/03/19 09:14:35;;;;;;;15.75;12.75;;;10.50;99.90;;;;;;5072657;28;20050;-80
2023/03/19 09:17:02;;;;;;;13.80;11.93;;;10.40;99.90;;;;;;5109977;28;20036;-80
2023/03/19 09:19:28;;;;;;;14.45;12.57;;;10.50;99.90;;;;;;5076960;28;20075;-80
2023/03/19 09:21:53;;;;;;;13.52;12.10;;;10.50;99.90;;;;;;5076668;28;20517;-79
2023/03/19 09:24:19;;;;;;;13.52;12.10;;;12.10;99.90;;;;;;5076870;28;20108;-82
2023/03/19 09:26:45;;;;;;;13.20;11.90;;;11.20;99.90;;;;;;5107332;28;20054;-83
2023/03/19 09:29:12;;;;;;;13.45;11.90;;;10.50;99.90;;;;;;5092294;28;20123;-82
2023/03/19 09:31:38;;;;;;;13.18;11.77;;;10.50;99.90;;;;;;5076063;28;20047;-81
2023/03/19 09:34:05;;;;;;;12.70;11.40;;;11.80;99.90;;;;;;5110797;28;20027;-81
2023/03/19 09:36:32;;;;;;;11.82;10.65;;;12.50;99.90;;;;;;5093711;28;20047;-81
2023/03/19 09:38:58;;;;;;;12.45;11.23;;;10.60;99.90;;;;;;5076043;28;20115;-80
2023/03/19 09:41:48;;;;;;;15.43;12.55;;;10.70;99.90;;;;;;5092440;28;20048;-81
2023/03/19 09:44:29;;;;;;;12.52;11.23;;;11.40;99.90;;;;;;5092900;28;20047;-82
2023/03/19 09:47:31;;;;;;;12.18;10.52;;;10.80;99.90;;;;;;5068869;28;20479;-83
2023/03/19 09:50:02;;;;;;;14.95;11.95;;;10.90;99.90;;;;;;5085386;28;20100;-80
2023/03/19 09:52:45;;;;;;;12.75;11.45;;;11.50;99.90;;;;;;5111535;28;20089;-80
2023/03/19 09:55:24;;;;;;;13.50;12.07;;;10.70;99.90;;;;;;5075492;28;20452;-80
2023/03/19 09:57:54;;;;;;;14.68;11.45;;;10.60;99.90;;;;;;5085036;28;20444;-81
2023/03/19 10:00:39;;;;;;;12.80;11.50;;;13.10;99.90;;;;;;5092640;28;20043;-80
2023/03/19 10:03:31;;;;;;;13.60;10.68;;;10.60;99.90;;;;;;5104221;28;20036;-80
2023/03/19 10:06:00;;;;;;;14.00;11.68;;;10.60;99.90;;;;;;5068614;28;20067;-80
2023/03/19 10:08:53;;;;;;;12.52;10.57;;;10.70;99.90;;;;;;5092775;28;20055;-82
2023/03/19 10:12:00;;;;;;;16.02;12.32;;;10.50;99.90;;;;;;5092713;28;20046;-81
2023/03/19 10:14:54;;;;;;;14.60;11.77;;;10.50;99.90;;;;;;5072439;28;20153;-81
2023/03/19 10:17:31;;;;;;;15.18;11.93;;;10.40;99.90;;;;;;5091862;28;20048;-81
2023/03/19 10:20:21;;;;;;;14.68;13.07;;;10.30;99.90;;;;;;5084972;28;20127;-81
2023/03/19 10:23:10;;;;;;;15.93;13.00;;;10.30;99.90;;;;;;5083918;28;20121;-81
2023/03/19 10:25:40;;;;;;;16.17;14.48;;;10.30;99.90;;;;;;5061091;28;20096;-82
2023/03/19 10:28:17;;;;;;;16.25;13.95;;;10.30;99.90;;;;;;5090367;28;20052;-81
2023/03/19 10:31:21;;;;;;;16.75;14.27;;;10.40;99.90;;;;;;5058014;28;20089;-82
2023/03/19 10:34:15;;;;;;;15.05;13.30;;;10.20;99.90;;;;;;5092266;28;20525;-81
2023/03/19 10:36:40;;;;;;;18.02;15.00;;;10.20;99.90;;;;;;5075880;28;20054;-81
2023/03/19 10:39:06;;;;;;;16.00;14.27;;;10.20;99.90;;;;;;5074225;28;20039;-83
2023/03/19 10:41:32;;;;;;;15.52;13.93;;;;;;;;;;5092423;28;20624;-82
2023/03/19 10:44:02;;;;;;;15.95;14.07;;;10.30;99.90;;;;;;5074479;28;20396;-82
2023/03/19 10:46:37;;;;;;;14.57;13.10;;;10.30;99.90;;;;;;5091721;28;20047;-82
2023/03/19 10:49:03;;;;;;;17.00;15.27;;;11.00;99.90;;;;;;5110050;28;20039;-83
2023/03/19 10:51:30;;;;;;;19.17;16.77;;;10.40;99.90;;;;;;5074727;28;20446;-82
2023/03/19 10:53:59;;;;;;;18.17;15.65;;;10.40;99.90;;;;;;5075044;28;20070;-82
2023/03/19 10:56:29;;;;;;;17.92;15.63;;;11.80;99.90;;;;;;5074709;28;20039;-82
2023/03/19 10:59:01;;;;;;;19.17;17.08;;;10.30;99.90;;;;;;5083100;28;20051;-82
2023/03/19 11:01:32;;;;;;;20.20;17.60;;;13.50;99.90;;;;;;5110160;28;20036;-82
2023/03/19 11:03:59;;;;;;;19.20;17.15;;;13.60;99.90;;;;;;5091521;28;20388;-82
2023/03/19 11:06:37;;;;;;;20.83;16.52;;;10.10;99.90;;;;;;5074128;28;20403;-81
2023/03/19 11:09:18;;;;;;;17.75;14.95;;;11.20;99.90;;;;;;5102538;28;20046;-80
2023/03/19 11:11:52;;;;;;;16.27;14.45;;;10.40;99.90;;;;;;5075067;28;20048;-80
2023/03/19 11:14:38;;;;;;;17.65;14.48;;;11.90;99.90;;;;;;5090554;28;20127;-81
2023/03/19 11:17:35;;;;;;;15.20;13.70;;;10.20;99.90;;;;;;5084682;28;20039;-81
2023/03/19 11:20:20;;;;;;;19.10;15.15;;;10.10;99.90;;;;;;5083740;28;20039;-82
2023/03/19 11:22:48;;;;;;;18.38;14.40;;;10.10;99.90;;;;;;5091960;28;20059;-84
2023/03/19 11:25:35;;;;;;;19.17;15.85;;;11.90;99.90;;;;;;5073982;28;20074;-82
2023/03/19 11:28:11;;;;;;;18.92;15.15;;;10.10;99.90;;;;;;5100559;28;20060;-82
2023/03/19 11:31:00;;;;;;;17.63;15.75;;;10.10;99.90;;;;;;5074329;28;20517;-82
2023/03/19 11:33:54;;;;;;;20.27;17.27;;;9.90;99.90;;;;;;5073703;28;20363;-82
2023/03/19 11:36:31;;;;;;;22.50;17.70;;;10.10;99.90;;;;;;5087459;28;20411;-82
2023/03/19 11:38:57;;;;;;;22.15;17.75;;;10.10;99.90;;;;;;5101416;28;20040;-82
2023/03/19 11:42:02;;;;;;;20.23;17.83;;;10.60;99.90;;;;;;5073687;28;20208;-82
2023/03/19 11:44:50;;;;;;;22.00;18.00;;;10.00;99.90;;;;;;5088199;28;20078;-82
2023/03/19 11:47:27;;;;;;;27.27;18.70;;;10.00;99.90;;;;;;5089798;28;20555;-81
2023/03/19 11:50:06;;;;;;;25.05;20.52;;;8.90;99.90;;;;;;5082309;28;20051;-81
2023/03/19 11:52:57;;;;;;;24.52;18.95;;;9.90;99.90;;;;;;5107931;28;20066;-81
2023/03/19 11:55:47;;;;;;;21.55;18.73;;;10.00;99.90;;;;;;5090089;28;20123;-81
2023/03/19 11:58:38;;;;;;;24.25;19.17;;;9.90;99.90;;;;;;5068013;28;20054;-80
2023/03/19 12:01:48;;;;;;;26.83;19.50;;;9.90;99.90;;;;;;5067026;28;20079;-80
2023/03/19 12:04:32;;;;;;;25.80;19.40;;;12.60;99.90;;;;;;5039296;28;20047;-82
2023/03/19 12:07:22;;;;;;;22.90;18.17;;;9.80;99.90;;;;;;5082538;28;20124;-79
2023/03/19 12:09:48;;;;;;;28.98;20.10;;;9.90;99.90;;;;;;5073157;28;20495;-81
2023/03/19 12:12:34;;;;;;;28.92;20.20;;;9.90;99.90;;;;;;5073243;28;20058;-80
2023/03/19 12:15:27;;;;;;;30.02;21.63;;;9.90;99.90;;;;;;5082947;28;20046;-83
2023/03/19 12:18:25;;;;;;;33.70;23.13;;;9.90;99.90;;;;;;5082043;28;20039;-80
2023/03/19 12:21:06;;;;;;;30.05;21.85;;;10.00;99.90;;;;;;5074320;28;20044;-80
2023/03/19 12:23:40;;;;;;;31.23;21.75;;;10.00;99.90;;;;;;5089848;28;20043;-80
2023/03/19 12:26:33;;;;;;;31.70;22.20;;;12.50;99.90;;;;;;5089841;28;20042;-80
2023/03/19 12:29:13;;;;;;;28.65;21.23;;;9.90;99.90;;;;;;5082500;28;20036;-79
2023/03/19 12:31:52;;;;;;;31.90;22.55;;;10.00;99.90;;;;;;5072862;28;20108;-79
2023/03/19 12:34:18;;;;;;;30.58;21.40;;;10.10;99.90;;;;;;5089928;28;20051;-81
2023/03/19 12:36:58;;;;;;;32.40;22.52;;;10.20;99.90;;;;;;5073100;28;20050;-81
2023/03/19 12:39:33;;;;;;;31.77;22.50;;;10.00;99.90;;;;;;5072854;28;20040;-80
2023/03/19 12:42:01;;;;;;;34.80;24.27;;;10.00;99.90;;;;;;5083080;28;20047;-81
2023/03/19 12:44:36;;;;;;;36.30;24.75;;;12.80;99.90;;;;;;5107911;28;20054;-80
2023/03/19 12:47:12;;;;;;;41.92;26.23;;;11.80;99.90;;;;;;5083286;28;20039;-80
2023/03/19 12:49:45;;;;;;;35.97;23.65;;;9.90;99.90;;;;;;5072266;28;20054;-80
2023/03/19 12:52:33;;;;;;;31.57;22.10;;;12.70;99.90;;;;;;4739667;28;10000024;-80